Time;durP1;ratioP1;P1;durP2;ratioP2;P2;SDS_P1;SDS_P2;PMS_P1;PMS_P2;Temp;Humidity;BMP_temperature;BMP_pressure;BME280_temperature;BME280_humidity;BME280_pressure;Samples;Min_cycle;Max_cycle;Signal;HPM_P1;HPM_P2
2022/04/08 00:03:12;;;;;;;7.43;2.70;;;;;;;3.37;88.20;99624.81;10469771;28;20113;-80
2022/04/08 00:08:12;;;;;;;5.53;2.42;;;;;;;3.30;88.48;99595.94;10489717;28;20056;-79
2022/04/08 00:13:13;;;;;;;5.57;1.67;;;;;;;3.22;87.92;99629.13;10439049;28;20436;-80
2022/04/08 00:18:14;;;;;;;7.20;2.53;;;;;;;3.13;88.82;99641.53;10444330;28;20411;-79
2022/04/08 00:23:14;;;;;;;5.60;2.25;;;;;;;3.10;88.69;99644.81;10462090;28;20064;-79
2022/04/08 00:28:15;;;;;;;7.07;3.70;;;;;;;3.05;89.17;99657.50;10455478;28;20025;-79
2022/04/08 00:33:15;;;;;;;11.82;3.70;;;;;;;3.01;89.56;99667.53;10436875;28;20052;-79
2022/04/08 00:38:16;;;;;;;10.70;3.00;;;;;;;3.16;89.42;99670.16;10443631;28;20483;-79
2022/04/08 00:43:19;;;;;;;8.57;2.40;;;;;;;3.29;88.72;99674.31;10463186;28;20076;-80
2022/04/08 00:48:20;;;;;;;8.73;2.63;;;;;;;3.31;88.39;99675.28;10471441;28;20439;-80
2022/04/08 00:53:21;;;;;;;18.13;5.32;;;;;;;3.19;88.37;99675.50;10436321;28;20083;-79
2022/04/08 00:58:21;;;;;;;5.72;1.95;;;;;;;3.06;88.73;99677.38;10440016;28;20021;-79
2022/04/08 01:03:22;;;;;;;7.97;2.95;;;;;;;2.99;89.44;99687.25;10459747;28;20117;-79
2022/04/08 01:08:22;;;;;;;6.40;3.00;;;;;;;2.91;89.19;99699.72;10460242;28;20039;-79
2022/04/08 01:13:23;;;;;;;13.40;4.95;;;;;;;3.02;89.42;99714.19;10477721;28;20068;-79
2022/04/08 01:18:23;;;;;;;10.25;3.55;;;;;;;3.15;88.74;99709.72;10487793;28;20123;-80
2022/04/08 01:23:24;;;;;;;9.85;2.72;;;;;;;3.17;88.34;99734.00;10468830;28;20116;-79
2022/04/08 01:28:25;;;;;;;8.80;4.53;;;;;;;3.17;88.52;99729.69;10426848;28;20474;-79
2022/04/08 01:33:26;;;;;;;15.98;4.43;;;;;;;3.28;88.69;99739.78;10476767;28;20036;-80
2022/04/08 01:38:26;;;;;;;8.35;3.40;;;;;;;3.22;88.78;99750.66;10435302;28;20079;-79
2022/04/08 01:43:27;;;;;;;10.52;3.03;;;;;;;3.38;88.60;99745.59;10435598;28;20057;-80
2022/04/08 01:48:27;;;;;;;10.95;5.30;;;;;;;3.48;88.02;99756.47;10466847;28;20052;-79
2022/04/08 01:53:28;;;;;;;12.32;2.38;;;;;;;3.56;88.00;99751.72;10434563;28;20021;-79
2022/04/08 01:58:28;;;;;;;12.52;4.03;;;;;;;3.55;87.05;99755.13;10458717;28;20375;-80
2022/04/08 02:03:29;;;;;;;8.70;2.92;;;;;;;3.40;87.39;99765.47;10460772;28;20056;-80
2022/04/08 02:08:29;;;;;;;14.15;4.45;;;;;;;3.32;87.75;99773.69;10472121;28;20034;-80
2022/04/08 02:13:30;;;;;;;19.38;5.80;;;;;;;3.21;88.12;99773.03;10450501;28;20030;-79
2022/04/08 02:18:30;;;;;;;14.63;5.57;;;;;;;3.21;88.46;99779.91;10448936;28;20611;-79
2022/04/08 02:23:32;;;;;;;26.63;7.70;;;;;;;3.14;88.70;99783.81;10474800;28;20032;-79
2022/04/08 02:28:33;;;;;;;11.52;4.22;;;;;;;3.06;89.15;99790.22;10474330;28;20040;-79
2022/04/08 02:33:34;;;;;;;12.40;6.75;;;;;;;3.24;89.60;99800.78;10434031;28;20033;-79
2022/04/08 02:38:34;;;;;;;17.45;5.72;;;;;;;3.38;89.25;99799.00;10435975;28;20044;-79
2022/04/08 02:43:35;;;;;;;13.95;6.07;;;;;;;3.36;89.36;99803.19;10474468;28;20045;-80
2022/04/08 02:48:35;;;;;;;10.02;5.55;;;;;;;3.43;89.08;99795.00;10491966;28;20033;-80
2022/04/08 02:53:36;;;;;;;15.30;8.02;;;;;;;3.20;88.56;99806.56;10466588;28;20086;-79
2022/04/08 02:58:37;;;;;;;14.32;6.47;;;;;;;2.87;88.88;99807.19;10471106;28;20070;-80
2022/04/08 03:03:37;;;;;;;15.43;6.53;;;;;;;2.67;89.47;99816.31;10484236;28;20039;-80
2022/04/08 03:08:38;;;;;;;18.33;7.40;;;;;;;2.55;90.83;99812.97;10471487;28;20485;-80
2022/04/08 03:13:38;;;;;;;15.10;8.50;;;;;;;2.62;91.13;99815.13;10441241;28;20017;-80
2022/04/08 03:18:39;;;;;;;14.82;8.00;;;;;;;2.75;91.40;99816.75;10444719;28;20054;-80
2022/04/08 03:23:39;;;;;;;18.42;6.97;;;;;;;2.77;90.95;99816.06;10481339;28;20039;-80
2022/04/08 03:28:40;;;;;;;16.25;8.10;;;;;;;2.64;90.45;99817.00;10495108;28;20033;-80
2022/04/08 03:33:41;;;;;;;13.82;7.40;;;;;;;2.49;90.73;99828.94;10422063;28;20103;-80
2022/04/08 03:38:41;;;;;;;15.07;8.68;;;;;;;2.35;91.30;99831.53;10444191;28;20070;-80
2022/04/08 03:43:42;;;;;;;18.55;8.85;;;;;;;2.37;91.41;99830.75;10479146;28;20128;-79
2022/04/08 03:48:43;;;;;;;18.30;9.65;;;;;;;2.15;91.24;99834.53;10477989;28;20053;-80
2022/04/08 03:53:43;;;;;;;20.70;11.35;;;;;;;2.12;91.89;99835.25;10439244;28;20059;-80
2022/04/08 03:58:44;;;;;;;23.08;11.48;;;;;;;2.05;92.19;99838.22;10439406;28;20023;-80
2022/04/08 04:03:44;;;;;;;17.88;10.27;;;;;;;1.97;92.50;99842.88;10437479;28;20488;-80
2022/04/08 04:08:45;;;;;;;22.05;11.60;;;;;;;1.88;92.52;99850.00;10455531;28;20530;-80
2022/04/08 04:13:45;;;;;;;22.13;11.85;;;;;;;1.82;93.15;99847.03;10439830;28;20041;-80
2022/04/08 04:18:46;;;;;;;24.98;13.48;;;;;;;1.81;93.36;99848.72;10439389;28;20017;-80
2022/04/08 04:23:46;;;;;;;23.70;14.27;;;;;;;1.74;93.39;99837.09;10478863;28;20135;-80
2022/04/08 04:28:47;;;;;;;20.40;12.27;;;;;;;1.84;93.62;99837.69;10478181;28;20538;-80
2022/04/08 04:33:47;;;;;;;26.33;12.93;;;;;;;1.98;93.85;99834.34;10395300;28;20095;-80
2022/04/08 04:38:48;;;;;;;18.63;11.88;;;;;;;2.03;93.58;99832.06;10438797;28;20055;-80
2022/04/08 04:43:48;;;;;;;21.67;12.85;;;;;;;2.14;94.10;99833.66;10453700;28;20044;-80
2022/04/08 04:48:49;;;;;;;21.30;12.43;;;;;;;2.27;94.19;99839.63;10466304;28;20492;-78
2022/04/08 04:53:49;;;;;;;17.40;11.18;;;;;;;2.14;93.30;99840.50;10477157;28;20048;-79
2022/04/08 04:58:50;;;;;;;23.25;12.57;;;;;;;2.00;92.89;99844.78;10461916;28;20082;-79
2022/04/08 05:03:50;;;;;;;25.63;15.43;;;;;;;2.01;93.25;99849.16;10491110;28;20040;-79
2022/04/08 05:08:51;;;;;;;20.08;13.88;;;;;;;2.04;93.91;99839.91;10453069;28;20055;-80
2022/04/08 05:13:51;;;;;;;19.38;12.35;;;;;;;1.98;93.39;99838.63;10457732;28;20043;-79
2022/04/08 05:18:53;;;;;;;20.27;10.27;;;;;;;2.08;93.73;99841.00;10478456;28;20032;-79
2022/04/08 05:23:53;;;;;;;15.80;10.13;;;;;;;2.23;93.63;99846.25;10457650;28;20535;-78
2022/04/08 05:28:54;;;;;;;17.17;10.75;;;;;;;2.42;93.82;99855.19;10458331;28;20111;-77
2022/04/08 05:33:55;;;;;;;16.20;8.90;;;;;;;2.42;92.43;99845.75;10471775;28;20052;-78
2022/04/08 05:38:56;;;;;;;46.38;10.00;;;;;;;2.53;91.55;99840.38;10427673;28;20044;-80
2022/04/08 05:43:56;;;;;;;20.85;7.65;;;;;;;2.50;91.14;99835.91;10404611;28;20139;-79
2022/04/08 05:48:57;;;;;;;11.07;6.90;;;;;;;3.01;91.13;99818.38;10411837;28;20091;-81
2022/04/08 05:53:58;;;;;;;11.73;5.60;;;;;;;3.81;88.13;99809.28;10420581;28;20057;-81
2022/04/08 05:58:59;;;;;;;11.15;6.35;;;;;;;4.58;84.60;99810.91;10458014;28;20484;-80
2022/04/08 06:03:59;;;;;;;8.52;4.97;;;;;;;5.59;80.80;99806.69;10469214;28;20060;-80
2022/04/08 06:09:00;;;;;;;6.88;3.85;;;;;;;6.74;74.65;99802.69;10474014;28;20060;-79
2022/04/08 06:14:00;;;;;;;8.00;3.40;;;;;;;6.81;71.37;99802.97;10473713;28;20492;-78
2022/04/08 06:19:01;;;;;;;7.18;3.85;;;;;;;7.44;70.36;99805.78;10466468;28;20103;-80
2022/04/08 06:24:01;;;;;;;10.43;3.90;;;;;;;8.11;68.43;99800.69;10430964;28;20569;-81
2022/04/08 06:29:04;;;;;;;6.80;3.45;;;;;;;8.35;65.85;99797.28;10489846;28;20102;-81
2022/04/08 06:34:04;;;;;;;7.28;3.95;;;;;;;8.37;66.50;99803.44;10482884;28;20162;-81
2022/04/08 06:39:05;;;;;;;5.57;3.88;;;;;;;9.04;63.37;99817.31;10477008;28;20028;-81
2022/04/08 06:44:06;;;;;;;5.40;3.30;;;;;;;9.19;63.54;99798.75;10479093;28;20482;-81
2022/04/08 06:49:06;;;;;;;7.15;5.38;;;;;;;8.44;64.18;99800.25;10482629;28;20032;-81
2022/04/08 06:54:07;;;;;;;7.15;3.75;;;;;;;7.19;69.80;99801.19;10444028;28;20554;-81
2022/04/08 06:59:07;;;;;;;11.25;4.78;;;;;;;6.66;70.56;99788.44;10483970;28;20044;-81
2022/04/08 07:04:08;;;;;;;10.60;4.05;;;;;;;6.20;72.33;99799.25;10483054;28;20056;-81
2022/04/08 07:09:08;;;;;;;10.13;4.28;;;;;;;5.96;74.54;99794.63;10493995;28;20017;-81
2022/04/08 07:14:09;;;;;;;8.65;4.68;;;;;;;5.84;75.00;99792.34;10424482;28;20108;-80
2022/04/08 07:19:13;;;;;;;13.85;5.80;;;;;;;5.85;74.82;99788.91;10424451;28;20060;-80
2022/04/08 07:24:13;;;;;;;11.15;5.75;;;;;;;5.83;75.87;99796.63;10442305;28;20048;-81
2022/04/08 07:29:14;;;;;;;13.55;5.78;;;;;;;5.86;75.05;99788.97;10451282;28;20056;-81
2022/04/08 07:34:14;;;;;;;13.40;5.68;;;;;;;5.73;76.35;99789.19;10440834;28;20437;-80
2022/04/08 07:39:15;;;;;;;14.00;4.82;;;;;;;5.72;76.28;99788.31;10457032;28;20444;-81
2022/04/08 07:44:15;;;;;;;12.48;5.97;;;;;;;5.63;76.82;99803.44;10476777;28;20083;-81
2022/04/08 07:49:16;;;;;;;12.05;6.30;;;;;;;5.72;76.73;99790.91;10452331;28;20387;-80
2022/04/08 07:54:16;;;;;;;8.43;5.18;;;;;;;5.77;74.93;99792.84;10453297;28;20051;-80
2022/04/08 07:59:17;;;;;;;9.85;6.22;;;;;;;5.79;76.23;99789.50;10452284;28;20025;-81
2022/04/08 08:04:18;;;;;;;8.87;5.47;;;;;;;5.91;75.44;99786.63;10438948;28;20476;-80
2022/04/08 08:09:18;;;;;;;10.82;6.07;;;;;;;5.99;74.44;99780.09;10466261;28;20048;-80
2022/04/08 08:14:19;;;;;;;13.02;7.75;;;;;;;6.00;75.13;99780.97;10463754;28;20106;-81
2022/04/08 08:19:19;;;;;;;11.23;8.30;;;;;;;6.20;74.38;99779.38;10445143;28;20119;-80
2022/04/08 08:24:20;;;;;;;10.48;5.68;;;;;;;6.10;74.59;99777.16;10472479;28;20395;-80
2022/04/08 08:29:21;;;;;;;10.82;5.38;;;;;;;6.11;73.65;99777.22;10381848;28;20064;-80
2022/04/08 08:34:21;;;;;;;9.82;5.30;;;;;;;6.35;74.12;99774.00;10380066;28;20136;-80
2022/04/08 08:39:22;;;;;;;10.02;5.22;;;;;;;6.54;72.33;99754.06;10413622;28;20018;-80
2022/04/08 08:44:22;;;;;;;10.13;4.97;;;;;;;6.45;73.06;99747.63;10412736;28;20080;-80
2022/04/08 08:49:23;;;;;;;10.13;5.38;;;;;;;6.60;72.26;99738.75;10396509;28;20041;-80
2022/04/08 08:54:23;;;;;;;8.30;4.97;;;;;;;6.94;70.80;99728.97;10395128;28;20037;-79
2022/04/08 08:59:24;;;;;;;7.95;4.35;;;;;;;7.17;69.51;99719.56;10394807;28;20037;-79
2022/04/08 09:04:26;;;;;;;11.90;4.20;;;;;;;7.36;68.84;99710.84;10388132;28;20041;-80
2022/04/08 09:09:30;;;;;;;11.82;5.20;;;;;;;7.66;66.56;99699.00;10437722;28;20483;-80
2022/04/08 09:14:34;;;;;;;11.40;4.80;;;;;;;7.84;66.91;99691.94;10434908;28;20377;-80
2022/04/08 09:19:34;;;;;;;7.57;3.90;;;;;;;8.17;61.59;99678.44;10436036;28;20044;-80
2022/04/08 09:24:35;;;;;;;7.65;4.07;;;;;;;8.11;62.88;99678.19;10477292;28;20064;-80
2022/04/08 09:29:35;;;;;;;15.80;5.43;;;;;;;8.12;64.18;99681.72;10461794;28;20439;-80
2022/04/08 09:34:37;;;;;;;8.15;3.53;;;;;;;7.84;62.60;99683.25;10437536;28;20016;-79
2022/04/08 09:39:56;;;;;;;14.30;4.13;;;;;;;7.91;62.22;99678.31;10460253;28;20058;-80
2022/04/08 09:44:57;;;;;;;7.60;3.22;;;;;;;7.71;61.49;99669.72;10492801;28;20037;-80
2022/04/08 09:49:57;;;;;;;9.13;3.30;;;;;;;7.76;62.07;99667.28;10477434;28;20036;-80
2022/04/08 09:54:58;;;;;;;6.78;2.92;;;;;;;7.77;60.05;99669.97;10442066;28;20028;-80
2022/04/08 09:59:59;;;;;;;3.08;1.90;;;;;;;7.78;59.84;99682.16;10439821;28;20028;-79
2022/04/08 10:04:59;;;;;;;7.03;4.68;;;;;;;7.82;59.78;99688.38;10450891;28;20128;-78
2022/04/08 10:10:48;;;;;;;39.92;21.05;;;;;;;7.61;58.92;99699.72;10458868;28;20392;-79
2022/04/08 10:16:17;;;;;;;6.10;3.25;;;;;;;7.45;57.44;99695.59;10435382;28;20124;-78
2022/04/08 10:21:18;;;;;;;10.80;3.13;;;;;;;7.45;60.26;99693.00;10460071;28;20040;-80
2022/04/08 10:26:22;;;;;;;6.13;2.88;;;;;;;7.61;59.19;99691.03;10457434;28;20063;-80
2022/04/08 10:31:26;;;;;;;10.60;3.17;;;;;;;7.41;58.78;99670.25;10459359;28;20064;-78
2022/04/08 10:36:35;;;;;;;4.75;2.72;;;;;;;7.38;59.37;99670.13;10417478;28;20472;-78
2022/04/08 10:41:54;;;;;;;4.90;2.45;;;;;;;7.33;60.19;99664.72;10435574;28;20064;-79
2022/04/08 10:46:54;;;;;;;4.95;1.98;;;;;;;7.27;56.84;99650.59;10472840;28;20037;-82
2022/04/08 10:51:55;;;;;;;8.07;2.42;;;;;;;7.31;57.25;99640.34;10389312;28;20040;-82
2022/04/08 10:56:59;;;;;;;4.22;1.65;;;;;;;7.62;56.79;99633.78;10384534;28;20028;-82
2022/04/08 11:02:02;;;;;;;7.15;3.10;;;;;;;7.73;55.17;99631.63;10433945;28;20029;-82
2022/04/08 11:07:04;;;;;;;5.50;2.15;;;;;;;7.91;56.35;99627.94;10458671;28;20095;-78
2022/04/08 11:12:05;;;;;;;;;;;;;;;7.87;55.93;99610.41;10423040;28;20140;-79
2022/04/08 11:17:05;;;;;;;7.70;1.77;;;;;;;8.33;53.58;99613.84;10482133;28;20042;-83
2022/04/08 11:22:10;;;;;;;5.05;2.58;;;;;;;8.28;55.49;99598.06;10484567;28;20064;-81
2022/04/08 11:27:11;;;;;;;5.57;1.98;;;;;;;8.35;54.46;99601.75;10443757;28;20087;-81
2022/04/08 11:32:12;;;;;;;8.38;2.85;;;;;;;8.33;53.98;99586.06;10458345;28;20071;-81
2022/04/08 11:37:12;;;;;;;4.35;1.75;;;;;;;8.11;51.98;99584.38;10440233;28;20480;-81
2022/04/08 11:42:14;;;;;;;7.43;1.77;;;;;;;8.12;53.86;99577.47;10453102;28;20060;-81
2022/04/08 11:47:17;;;;;;;7.35;1.25;;;;;;;8.20;53.84;99571.69;10455146;28;20466;-81
2022/04/08 11:52:17;;;;;;;4.10;1.83;;;;;;;8.07;52.54;99565.16;10481032;28;20020;-81
2022/04/08 11:57:27;;;;;;;7.60;1.95;;;;;;;8.04;53.40;99544.19;10433218;28;20092;-81
2022/04/08 12:02:27;;;;;;;4.82;1.38;;;;;;;8.12;54.13;99544.47;10444471;28;20029;-81
2022/04/08 12:07:28;;;;;;;4.82;1.80;;;;;;;8.33;54.43;99540.84;10443673;28;20388;-82
2022/04/08 12:12:29;;;;;;;7.47;1.65;;;;;;;8.38;53.95;99550.63;10399628;28;20025;-82
2022/04/08 12:17:37;;;;;;;5.55;1.95;;;;;;;8.47;53.83;99543.97;10446794;28;20399;-81
2022/04/08 12:22:38;;;;;;;3.47;2.00;;;;;;;8.17;52.93;99552.47;10461779;28;20031;-81
2022/04/08 12:27:38;;;;;;;5.10;2.17;;;;;;;8.13;54.03;99548.84;10466462;28;20060;-82
2022/04/08 12:32:42;;;;;;;7.43;2.17;;;;;;;8.02;54.91;99548.47;10438172;28;20061;-82
2022/04/08 12:37:42;;;;;;;7.82;1.63;;;;;;;8.17;55.15;99545.53;10469129;28;20082;-82
2022/04/08 12:42:43;;;;;;;5.85;1.60;;;;;;;8.07;53.98;99544.31;10458089;28;20071;-81
2022/04/08 12:47:43;;;;;;;4.60;1.85;;;;;;;8.12;53.42;99538.38;10439274;28;20775;-81
2022/04/08 12:52:44;;;;;;;4.50;1.75;;;;;;;8.46;54.18;99526.53;10454524;28;20388;-82
2022/04/08 12:57:47;;;;;;;6.95;2.55;;;;;;;8.49;53.65;99529.28;10452693;28;20486;-81
2022/04/08 13:02:48;;;;;;;6.25;2.15;;;;;;;8.68;52.78;99524.69;10455015;28;20028;-80
2022/04/08 13:07:50;;;;;;;5.18;2.25;;;;;;;8.68;54.20;99529.91;10470394;28;20033;-79
2022/04/08 13:12:51;;;;;;;5.88;1.70;;;;;;;8.88;55.03;99517.53;10478129;28;20545;-81
2022/04/08 13:17:51;;;;;;;5.40;2.63;;;;;;;8.79;54.12;99521.59;10464039;28;20083;-80
2022/04/08 13:22:52;;;;;;;8.38;3.80;;;;;;;9.03;54.08;99527.59;10455233;28;20045;-80
2022/04/08 13:27:53;;;;;;;7.53;2.25;;;;;;;9.17;52.65;99521.09;10465288;28;20067;-79
2022/04/08 13:32:54;;;;;;;13.23;2.97;;;;;;;9.77;51.95;99510.66;10440756;28;20040;-84
2022/04/08 13:37:56;;;;;;;6.72;3.08;;;;;;;10.33;50.69;99522.69;10480612;28;20064;-79
2022/04/08 13:43:00;;;;;;;7.22;4.35;;;;;;;10.34;52.81;99509.66;10466832;28;20072;-77
2022/04/08 13:48:02;;;;;;;9.20;2.85;;;;;;;9.93;51.80;99517.25;10413100;28;20045;-78
2022/04/08 13:53:02;;;;;;;9.23;3.05;;;;;;;9.63;53.58;99510.28;10413113;28;20037;-79
2022/04/08 13:58:03;;;;;;;2.80;1.88;;;;;;;9.44;52.89;99514.94;10431940;28;20041;-80
2022/04/08 14:03:04;;;;;;;10.10;3.15;;;;;;;9.73;51.90;99512.31;10453034;28;20453;-80
2022/04/08 14:08:05;;;;;;;5.00;2.72;;;;;;;9.95;51.88;99512.94;10436273;28;20468;-80
2022/04/08 14:13:07;;;;;;;10.45;3.17;;;;;;;9.95;50.94;99505.09;10441807;28;20075;-80
2022/04/08 14:18:07;;;;;;;;;;;;;;;10.13;50.82;99503.00;10435267;28;20464;-80
2022/04/08 14:23:08;;;;;;;7.90;3.30;;;;;;;10.27;50.61;99492.91;10453594;28;19978;-81
2022/04/08 14:28:08;;;;;;;4.38;2.45;;;;;;;9.49;51.66;99508.13;10434470;28;20295;-81
2022/04/08 14:33:09;;;;;;;3.80;2.30;;;;;;;9.13;53.65;99510.47;10424420;28;20063;-80
2022/04/08 14:38:10;;;;;;;8.65;2.70;;;;;;;9.24;54.53;99502.16;10487150;28;20086;-81
2022/04/08 14:43:10;;;;;;;6.20;2.45;;;;;;;9.83;53.38;99495.16;10472312;28;20033;-84
2022/04/08 14:48:11;;;;;;;5.80;2.60;;;;;;;9.62;53.16;99493.69;10473641;28;20051;-80
2022/04/08 14:53:11;;;;;;;8.85;2.58;;;;;;;9.37;52.65;99492.09;10464722;28;20056;-80
2022/04/08 14:58:13;;;;;;;9.70;3.57;;;;;;;9.16;53.18;99510.59;10432538;28;20025;-80
2022/04/08 15:03:13;;;;;;;6.47;2.63;;;;;;;8.95;53.81;99511.66;10437017;28;20387;-79
2022/04/08 15:08:17;;;;;;;5.78;3.25;;;;;;;8.84;55.48;99513.03;10411886;28;20096;-80
2022/04/08 15:13:18;;;;;;;6.63;3.58;;;;;;;8.85;55.62;99520.03;10417045;28;20017;-80
2022/04/08 15:18:18;;;;;;;7.10;3.22;;;;;;;8.95;55.24;99522.09;10418344;28;20160;-88
2022/04/08 15:23:19;;;;;;;8.88;3.30;;;;;;;8.52;54.63;99529.41;10409246;28;20549;-83
2022/04/08 15:28:20;;;;;;;8.02;3.58;;;;;;;8.47;56.46;99528.31;10431981;28;20385;-81
2022/04/08 15:33:22;;;;;;;5.55;3.22;;;;;;;8.52;56.49;99525.06;10421523;28;20061;-81
2022/04/08 15:38:23;;;;;;;7.38;3.25;;;;;;;8.48;55.64;99532.69;10423913;28;20116;-81
2022/04/08 15:43:23;;;;;;;14.43;4.82;;;;;;;8.68;54.79;99545.56;10439704;28;20527;-83
2022/04/08 15:48:24;;;;;;;19.73;6.45;;;;;;;8.72;54.79;99547.44;10455540;28;20068;-83
2022/04/08 15:53:26;;;;;;;10.65;4.13;;;;;;;8.43;55.19;99542.94;10469203;28;20040;-82
2022/04/08 15:58:27;;;;;;;13.45;6.90;;;;;;;8.54;55.75;99547.69;10424546;28;20500;-83
2022/04/08 16:03:28;;;;;;;14.68;4.65;;;;;;;8.60;54.42;99542.69;10447093;28;20029;-83
2022/04/08 16:08:28;;;;;;;10.25;5.15;;;;;;;8.47;56.80;99544.84;10420961;28;20021;-83
2022/04/08 16:13:29;;;;;;;8.57;4.60;;;;;;;8.41;57.57;99548.97;10396849;28;20033;-83
2022/04/08 16:18:31;;;;;;;14.52;7.57;;;;;;;8.17;55.91;99553.34;10400084;28;20041;-83
2022/04/08 16:23:32;;;;;;;9.52;5.35;;;;;;;8.27;56.46;99557.19;10437034;28;20183;-84
2022/04/08 16:28:32;;;;;;;9.63;5.63;;;;;;;8.28;58.51;99556.34;10427846;28;20143;-84
2022/04/08 16:33:33;;;;;;;16.17;6.07;;;;;;;8.05;57.17;99551.19;10426575;28;20053;-82
2022/04/08 16:38:34;;;;;;;9.13;4.82;;;;;;;7.78;57.86;99551.03;10421446;28;21890;-83
2022/04/08 16:43:34;;;;;;;12.38;6.10;;;;;;;7.56;58.46;99558.03;10395288;28;20057;-83
2022/04/08 16:48:35;;;;;;;11.85;5.28;;;;;;;7.32;58.56;99569.25;10455808;28;20033;-82
2022/04/08 16:53:37;;;;;;;9.93;5.05;;;;;;;7.07;59.41;99566.47;10436626;28;20035;-83
2022/04/08 16:58:37;;;;;;;9.63;6.68;;;;;;;7.03;60.03;99578.50;10441757;28;20044;-81
2022/04/08 17:03:39;;;;;;;9.45;5.60;;;;;;;6.90;61.73;99577.09;10442650;28;20061;-84
2022/04/08 17:08:40;;;;;;;11.02;6.57;;;;;;;6.84;61.96;99582.03;10418856;28;20434;-84
2022/04/08 17:13:40;;;;;;;17.73;7.78;;;;;;;6.71;62.21;99575.44;10440006;28;20119;-84
2022/04/08 17:18:41;;;;;;;11.50;6.50;;;;;;;6.63;63.67;99587.22;10456208;28;20127;-85
2022/04/08 17:23:42;;;;;;;9.23;5.25;;;;;;;6.59;62.68;99589.69;10466912;28;20029;-84
2022/04/08 17:28:42;;;;;;;10.35;7.22;;;;;;;6.47;64.88;99595.22;10440297;28;20031;-85
2022/04/08 17:33:44;;;;;;;15.55;5.50;;;;;;;6.55;61.72;99598.19;10451976;28;20057;-84
2022/04/08 17:38:44;;;;;;;8.98;3.15;;;;;;;6.54;62.63;99590.28;10438027;28;20021;-84
2022/04/08 17:43:45;;;;;;;5.80;3.00;;;;;;;6.37;62.50;99592.19;10399569;28;20068;-84
2022/04/08 17:48:45;;;;;;;6.68;3.05;;;;;;;6.22;62.08;99588.06;10395213;28;20072;-84
2022/04/08 17:53:46;;;;;;;14.55;2.95;;;;;;;6.13;63.22;99585.94;10360634;28;20025;-84
2022/04/08 17:58:49;;;;;;;7.25;2.50;;;;;;;5.99;63.63;99590.50;10362219;28;20112;-84
2022/04/08 18:03:49;;;;;;;11.60;3.25;;;;;;;5.83;64.42;99590.59;10373684;28;20057;-85
2022/04/08 18:08:50;;;;;;;4.40;2.25;;;;;;;5.67;64.89;99604.56;10386291;28;20060;-84
2022/04/08 18:13:55;;;;;;;4.75;2.55;;;;;;;5.54;66.25;99597.94;10380760;28;20068;-83
2022/04/08 18:18:56;;;;;;;5.68;3.50;;;;;;;5.37;66.84;99605.78;10365941;28;20025;-84
2022/04/08 18:23:57;;;;;;;7.00;3.17;;;;;;;5.36;66.11;99608.28;10390207;28;20038;-84
2022/04/08 18:28:58;;;;;;;7.90;2.95;;;;;;;5.13;68.00;99624.53;10404572;28;20444;-84
2022/04/08 18:33:59;;;;;;;11.45;4.18;;;;;;;5.11;68.86;99623.56;10387343;28;20066;-84
2022/04/08 18:38:59;;;;;;;14.02;3.35;;;;;;;5.12;68.25;99634.81;10360557;28;20048;-81
2022/04/08 18:44:00;;;;;;;11.93;4.63;;;;;;;5.11;68.78;99639.13;10343095;28;20046;-82
2022/04/08 18:49:01;;;;;;;5.65;3.63;;;;;;;5.07;67.84;99654.44;10360902;28;20042;-82
2022/04/08 18:54:03;;;;;;;10.85;3.25;;;;;;;5.02;68.98;99662.00;10374719;28;20053;-82
2022/04/08 18:59:04;;;;;;;14.70;3.20;;;;;;;4.97;69.17;99673.84;10359774;28;20068;-82
2022/04/08 19:04:04;;;;;;;8.02;2.83;;;;;;;4.87;69.15;99685.44;10343127;28;20033;-82
2022/04/08 19:09:05;;;;;;;8.00;3.55;;;;;;;4.81;70.12;99691.22;10374945;28;20030;-82
2022/04/08 19:14:07;;;;;;;9.40;3.13;;;;;;;4.76;70.13;99699.53;10360495;28;20474;-82
2022/04/08 19:19:08;;;;;;;6.68;3.72;;;;;;;4.75;69.32;99714.22;10358795;28;20056;-82
2022/04/08 19:24:09;;;;;;;8.77;3.22;;;;;;;4.63;69.57;99709.28;10358425;28;20057;-81
2022/04/08 19:29:11;;;;;;;8.00;4.13;;;;;;;4.62;69.70;99715.25;10374613;28;20123;-83
2022/04/08 19:34:11;;;;;;;7.43;2.90;;;;;;;4.57;69.86;99719.31;10375363;28;20021;-87
2022/04/08 19:39:12;;;;;;;8.23;3.30;;;;;;;4.59;69.92;99724.59;10375253;28;20058;-86
2022/04/08 19:44:13;;;;;;;11.30;3.42;;;;;;;4.46;69.70;99730.81;10357356;28;20096;-86
2022/04/08 19:49:14;;;;;;;6.85;2.75;;;;;;;4.37;70.69;99742.44;10359908;28;20042;-86
2022/04/08 19:54:16;;;;;;;4.30;2.80;;;;;;;4.34;71.35;99744.88;10374326;28;20152;-88
2022/04/08 19:59:17;;;;;;;;;;;;;;;4.28;71.03;99759.22;10357322;28;20072;-86
2022/04/08 20:04:17;;;;;;;5.93;2.50;;;;;;;4.14;71.46;99766.19;10358311;28;19917;-86
2022/04/08 20:09:19;;;;;;;6.75;2.60;;;;;;;4.03;71.67;99779.44;10374963;28;20053;-87
2022/04/08 20:14:19;;;;;;;9.55;2.30;;;;;;;4.13;72.33;99792.91;10341727;28;20083;-86
2022/04/08 20:19:24;;;;;;;4.43;2.47;;;;;;;4.04;72.13;99798.47;10373777;28;20076;-85
2022/04/08 20:24:24;;;;;;;4.88;2.80;;;;;;;4.00;72.92;99802.56;10374418;28;20513;-86
2022/04/08 20:29:26;;;;;;;9.57;3.92;;;;;;;3.94;73.00;99808.31;10388260;28;20029;-86
2022/04/08 20:34:27;;;;;;;8.45;3.60;;;;;;;3.88;73.46;99830.34;10355362;28;20038;-86
2022/04/08 20:39:27;;;;;;;10.18;3.15;;;;;;;3.76;73.28;99827.94;10388477;28;20044;-86
2022/04/08 20:44:28;;;;;;;7.70;3.53;;;;;;;3.79;73.64;99835.88;10354858;28;20100;-86
2022/04/08 20:49:29;;;;;;;7.97;3.30;;;;;;;3.78;72.94;99844.47;10374594;28;20038;-86
2022/04/08 20:54:30;;;;;;;14.57;2.55;;;;;;;3.70;73.36;99837.94;10354368;28;20034;-88
2022/04/08 20:59:32;;;;;;;6.25;3.13;;;;;;;3.63;73.53;99857.38;10372029;28;20075;-85
2022/04/08 21:04:33;;;;;;;11.05;4.70;;;;;;;3.45;74.16;99864.94;10372184;28;20157;-85
2022/04/08 21:09:33;;;;;;;18.95;3.53;;;;;;;3.29;74.75;99871.78;10354520;28;20045;-85
2022/04/08 21:14:34;;;;;;;9.80;3.50;;;;;;;3.06;75.59;99888.44;10354884;28;20029;-85
2022/04/08 21:19:35;;;;;;;8.95;3.15;;;;;;;2.88;76.08;99901.13;10372501;28;20072;-85
2022/04/08 21:24:35;;;;;;;8.43;3.13;;;;;;;2.55;77.27;99901.66;10371346;28;20065;-85
2022/04/08 21:29:36;;;;;;;10.40;4.10;;;;;;;2.17;78.16;99912.97;10371136;28;20062;-86
2022/04/08 21:34:36;;;;;;;10.57;4.05;;;;;;;1.98;78.96;99932.41;10370558;28;20109;-85
2022/04/08 21:39:37;;;;;;;11.57;4.00;;;;;;;1.81;80.29;99944.19;10372416;28;20079;-86
2022/04/08 21:44:37;;;;;;;9.52;4.50;;;;;;;1.85;80.78;99961.66;10352557;28;20057;-85
2022/04/08 21:49:38;;;;;;;9.80;3.88;;;;;;;1.98;80.55;99972.81;10355360;28;20057;-85
2022/04/08 21:54:39;;;;;;;11.15;4.90;;;;;;;1.88;80.61;99973.88;10371181;28;20069;-85
2022/04/08 21:59:39;;;;;;;7.55;3.80;;;;;;;1.63;81.22;99994.53;10353384;28;20063;-85
2022/04/08 22:04:40;;;;;;;14.40;5.28;;;;;;;1.52;82.52;100006.66;10370691;28;20061;-85
2022/04/08 22:09:40;;;;;;;7.00;3.75;;;;;;;1.39;82.90;100022.97;10369526;28;20050;-85
2022/04/08 22:14:41;;;;;;;10.60;4.10;;;;;;;1.30;83.13;100029.28;10398640;28;20082;-80
2022/04/08 22:19:41;;;;;;;15.45;9.32;;;;;;;1.17;83.47;100042.94;10454496;28;20147;-85
2022/04/08 22:24:42;;;;;;;13.85;7.60;;;;;;;1.12;84.68;100056.31;10412790;28;20065;-81
2022/04/08 22:29:42;;;;;;;9.80;5.43;;;;;;;1.12;84.68;100064.03;10371133;28;20437;-80
2022/04/08 22:34:45;;;;;;;13.30;7.18;;;;;;;1.04;85.26;100072.91;10371608;28;20088;-81
2022/04/08 22:39:46;;;;;;;8.90;4.53;;;;;;;0.92;85.05;100078.94;10373093;28;20393;-81
2022/04/08 22:44:46;;;;;;;8.80;4.43;;;;;;;0.83;85.80;100091.16;10385428;28;20053;-84
2022/04/08 22:49:47;;;;;;;8.38;3.30;;;;;;;0.71;85.92;100106.56;10372601;28;20499;-84
2022/04/08 22:54:47;;;;;;;12.52;5.25;;;;;;;0.62;87.26;100126.47;10356976;28;20465;-83
2022/04/08 22:59:48;;;;;;;6.20;3.78;;;;;;;0.50;87.18;100134.19;10367310;28;20094;-83
2022/04/08 23:04:48;;;;;;;13.57;4.57;;;;;;;0.50;87.73;100140.22;10438348;28;20041;-83
2022/04/08 23:09:49;;;;;;;9.82;3.47;;;;;;;0.48;88.47;100146.94;10395659;28;20095;-83
2022/04/08 23:14:49;;;;;;;10.35;4.30;;;;;;;0.51;89.45;100156.59;10400537;28;20466;-83
2022/04/08 23:19:50;;;;;;;14.40;4.57;;;;;;;0.48;89.13;100162.38;10427334;28;20124;-83
2022/04/08 23:24:50;;;;;;;9.65;4.43;;;;;;;0.47;89.51;100176.03;10444230;28;20071;-83
2022/04/08 23:29:51;;;;;;;12.60;4.20;;;;;;;0.62;90.08;100193.44;10431107;28;20481;-83